Time;durP1;ratioP1;P1;durP2;ratioP2;P2;SDS_P1;SDS_P2;PMS_P1;PMS_P2;Temp;Humidity;BMP_temperature;BMP_pressure;BME280_temperature;BME280_humidity;BME280_pressure;Samples;Min_cycle;Max_cycle;Signal;HPM_P1;HPM_P2
2022/07/23 04:00:48;;;;;;;7.63;4.30;;;12.20;99.90;;;;;;6258247;22;20030;-84
2022/07/23 04:03:14;;;;;;;5.82;3.83;;;12.20;99.90;;;;;;6313259;22;20507;-83
2022/07/23 04:05:39;;;;;;;9.40;4.60;;;12.30;99.90;;;;;;6313773;22;20117;-85
2022/07/23 04:08:05;;;;;;;7.63;4.05;;;12.20;99.90;;;;;;6342107;22;20416;-85
2022/07/23 04:10:30;;;;;;;7.85;4.72;;;12.10;99.90;;;;;;6313471;22;20014;-84
2022/07/23 04:12:56;;;;;;;8.93;4.60;;;12.10;99.90;;;;;;6313870;22;20023;-85
2022/07/23 04:15:22;;;;;;;7.00;4.40;;;12.10;99.90;;;;;;6313285;22;20037;-84
2022/07/23 04:17:47;;;;;;;9.40;5.05;;;12.10;99.90;;;;;;6313676;22;20014;-84
2022/07/23 04:20:13;;;;;;;9.25;4.90;;;12.10;99.90;;;;;;6313484;22;20066;-82
2022/07/23 04:22:39;;;;;;;8.20;5.05;;;12.10;99.90;;;;;;6287043;22;20050;-85
2022/07/23 04:25:05;;;;;;;8.07;5.10;;;12.10;99.90;;;;;;6313564;22;20017;-85
2022/07/23 04:27:33;;;;;;;8.55;5.07;;;12.20;99.90;;;;;;6313576;22;20007;-84
2022/07/23 04:29:58;;;;;;;6.63;4.30;;;12.10;99.90;;;;;;6313758;22;20084;-85
2022/07/23 04:32:24;;;;;;;7.90;4.70;;;12.20;99.90;;;;;;6313480;22;20003;-84
2022/07/23 04:34:50;;;;;;;8.77;5.10;;;12.20;99.90;;;;;;6313624;22;20019;-85
2022/07/23 04:37:15;;;;;;;10.35;4.80;;;12.10;99.90;;;;;;6341170;22;20371;-84
2022/07/23 04:39:41;;;;;;;9.15;5.00;;;12.10;99.90;;;;;;6312788;22;20014;-85
2022/07/23 04:42:07;;;;;;;9.35;4.93;;;12.10;99.90;;;;;;6286944;22;20047;-85
2022/07/23 04:44:32;;;;;;;9.68;5.93;;;12.20;99.90;;;;;;6340877;22;20397;-85
2022/07/23 04:46:58;;;;;;;9.30;5.50;;;12.20;99.90;;;;;;6312872;22;20018;-84
2022/07/23 04:49:24;;;;;;;8.43;5.13;;;12.20;99.90;;;;;;6287393;22;20390;-85
2022/07/23 04:51:49;;;;;;;8.48;5.30;;;12.20;99.90;;;;;;6340670;22;20331;-85
2022/07/23 04:54:15;;;;;;;8.82;5.32;;;12.30;99.90;;;;;;6317644;22;20011;-82
2022/07/23 04:56:40;;;;;;;10.15;5.43;;;12.30;99.90;;;;;;6323272;22;20011;-84
2022/07/23 04:59:06;;;;;;;8.68;4.63;;;12.30;99.90;;;;;;6344655;22;20064;-85
2022/07/23 05:01:32;;;;;;;9.27;5.57;;;12.40;99.90;;;;;;6340660;22;20440;-85
2022/07/23 05:03:57;;;;;;;9.57;5.72;;;12.40;99.90;;;;;;6312833;22;20089;-83
2022/07/23 05:06:23;;;;;;;9.10;5.00;;;12.50;99.90;;;;;;6342382;22;20053;-85
2022/07/23 05:08:48;;;;;;;13.68;5.53;;;12.50;99.90;;;;;;6315600;22;20018;-85
2022/07/23 05:11:14;;;;;;;11.63;5.90;;;12.60;99.90;;;;;;6315065;22;20037;-87
2022/07/23 05:13:40;;;;;;;11.52;6.38;;;12.60;99.90;;;;;;6314963;22;20019;-86
2022/07/23 05:16:06;;;;;;;12.88;6.53;;;12.70;99.90;;;;;;6315165;22;20452;-86
2022/07/23 05:18:31;;;;;;;8.50;5.50;;;12.70;99.90;;;;;;6314612;22;20309;-85
2022/07/23 05:20:57;;;;;;;10.95;6.45;;;12.80;99.90;;;;;;6315100;22;20344;-86
2022/07/23 05:23:23;;;;;;;10.63;6.28;;;12.80;99.90;;;;;;6314634;22;20075;-86
2022/07/23 05:25:49;;;;;;;10.90;5.82;;;12.90;99.90;;;;;;6314622;22;20053;-85
2022/07/23 05:28:15;;;;;;;10.55;6.13;;;12.90;99.90;;;;;;6313637;22;20317;-81
2022/07/23 05:30:41;;;;;;;8.70;5.60;;;12.90;99.90;;;;;;6342122;22;20112;-83
2022/07/23 05:33:08;;;;;;;10.15;5.60;;;13.00;99.90;;;;;;6314715;22;20022;-84
2022/07/23 05:35:33;;;;;;;11.23;5.63;;;13.10;99.90;;;;;;6314738;22;20046;-82
2022/07/23 05:37:59;;;;;;;10.45;5.97;;;13.20;99.90;;;;;;6343131;22;20017;-84
2022/07/23 05:40:24;;;;;;;11.07;5.20;;;13.20;99.90;;;;;;6314983;22;20011;-82
2022/07/23 05:42:50;;;;;;;10.40;5.15;;;13.30;99.90;;;;;;6314677;22;20015;-84
2022/07/23 05:45:16;;;;;;;7.43;4.47;;;13.30;99.90;;;;;;6342888;22;20313;-85
2022/07/23 05:47:47;;;;;;;11.20;5.70;;;13.40;99.90;;;;;;6342413;22;20337;-81
2022/07/23 05:50:13;;;;;;;9.05;4.85;;;13.50;99.90;;;;;;6314215;22;20010;-82
2022/07/23 05:52:39;;;;;;;12.48;5.30;;;13.50;99.90;;;;;;6342424;22;20087;-83
2022/07/23 05:55:06;;;;;;;9.63;5.38;;;13.60;99.90;;;;;;6314752;22;20058;-85
2022/07/23 05:57:32;;;;;;;9.07;5.40;;;13.70;99.90;;;;;;6342771;22;20045;-85
2022/07/23 05:59:58;;;;;;;12.50;4.72;;;13.80;99.90;;;;;;6343190;22;20006;-84
2022/07/23 06:02:23;;;;;;;7.88;5.15;;;13.80;99.90;;;;;;6263503;22;20059;-85
2022/07/23 06:04:49;;;;;;;11.32;4.72;;;13.90;99.90;;;;;;6343053;22;20080;-85
2022/07/23 06:07:15;;;;;;;7.78;4.72;;;14.00;99.90;;;;;;6342814;22;20003;-86
2022/07/23 06:09:40;;;;;;;10.00;5.50;;;14.10;99.90;;;;;;6343137;22;20007;-85
2022/07/23 06:12:06;;;;;;;8.18;5.30;;;14.20;99.90;;;;;;6288542;22;20389;-84
2022/07/23 06:14:32;;;;;;;9.93;5.63;;;14.30;99.90;;;;;;6314421;22;20424;-84
2022/07/23 06:16:59;;;;;;;7.63;4.43;;;14.40;99.90;;;;;;6288393;22;20015;-86
2022/07/23 06:19:25;;;;;;;8.98;4.32;;;14.50;99.90;;;;;;6314611;22;20017;-86
2022/07/23 06:21:50;;;;;;;6.80;3.65;;;14.60;99.90;;;;;;6314202;22;20054;-84
2022/07/23 06:24:16;;;;;;;7.90;3.78;;;14.60;99.90;;;;;;6341017;22;20014;-84
2022/07/23 06:26:42;;;;;;;7.55;4.00;;;14.70;99.90;;;;;;6313533;22;20336;-85
2022/07/23 06:29:07;;;;;;;6.28;3.80;;;14.70;99.90;;;;;;6313717;22;20044;-84
2022/07/23 06:31:33;;;;;;;7.95;3.88;;;14.80;99.90;;;;;;6313606;22;20022;-85
2022/07/23 06:33:59;;;;;;;11.23;3.63;;;14.80;99.90;;;;;;6313261;22;20014;-82
2022/07/23 06:36:24;;;;;;;8.63;3.72;;;14.90;99.90;;;;;;6313399;22;20015;-83
2022/07/23 06:38:50;;;;;;;5.38;3.55;;;14.90;99.90;;;;;;6287655;22;20018;-85
2022/07/23 06:41:16;;;;;;;8.73;2.90;;;14.90;99.90;;;;;;6313399;22;20023;-84
2022/07/23 06:43:41;;;;;;;8.32;3.55;;;15.00;99.90;;;;;;6313998;22;20007;-86
2022/07/23 06:46:10;;;;;;;6.00;2.55;;;15.00;99.90;;;;;;6314695;22;20006;-87
2022/07/23 06:48:36;;;;;;;5.30;2.10;;;15.10;99.90;;;;;;6264055;22;20046;-85
2022/07/23 06:51:03;;;;;;;3.47;2.05;;;15.10;99.90;;;;;;6314283;22;20010;-88
2022/07/23 06:53:29;;;;;;;3.58;1.85;;;15.20;99.90;;;;;;6341922;22;20428;-86
2022/07/23 06:55:54;;;;;;;3.85;2.25;;;15.20;99.90;;;;;;6314650;22;20099;-85
2022/07/23 06:58:20;;;;;;;7.15;2.50;;;15.30;99.90;;;;;;6288225;22;20317;-86
2022/07/23 07:00:46;;;;;;;7.38;2.53;;;15.30;99.90;;;;;;6314297;22;20397;-86
2022/07/23 07:03:12;;;;;;;4.70;1.75;;;15.30;99.90;;;;;;6315259;22;20127;-87
2022/07/23 07:05:39;;;;;;;2.83;1.23;;;15.30;99.90;;;;;;6314938;22;20011;-86
2022/07/23 07:08:05;;;;;;;3.30;1.10;;;15.40;99.90;;;;;;6314033;22;20010;-87
2022/07/23 07:10:31;;;;;;;2.70;1.05;;;15.50;99.90;;;;;;6288336;22;20011;-86
2022/07/23 07:12:57;;;;;;;3.75;1.38;;;15.60;99.90;;;;;;6342293;22;20015;-85
2022/07/23 07:15:23;;;;;;;3.13;1.00;;;15.60;99.90;;;;;;6314393;22;20017;-87
2022/07/23 07:17:48;;;;;;;5.05;1.10;;;15.80;99.90;;;;;;6314634;22;20014;-87
2022/07/23 07:20:14;;;;;;;2.45;0.80;;;15.80;99.90;;;;;;6313524;22;20084;-84
2022/07/23 07:22:40;;;;;;;1.50;0.90;;;15.90;99.90;;;;;;6340602;22;20065;-88
2022/07/23 07:25:07;;;;;;;3.47;1.27;;;16.00;99.90;;;;;;6314734;22;20015;-87
2022/07/23 07:27:32;;;;;;;7.60;1.75;;;16.10;99.90;;;;;;6341867;22;20014;-86
2022/07/23 07:29:58;;;;;;;3.13;1.02;;;16.10;99.90;;;;;;6313822;22;20047;-86
2022/07/23 07:32:24;;;;;;;4.35;1.00;;;16.20;99.90;;;;;;6341853;22;20014;-84
2022/07/23 07:34:50;;;;;;;2.13;0.95;;;16.30;99.90;;;;;;6315106;22;20018;-87
2022/07/23 07:37:15;;;;;;;6.72;1.00;;;16.40;99.90;;;;;;6289340;22;20003;-86
2022/07/23 07:39:41;;;;;;;3.30;1.00;;;16.60;99.90;;;;;;6314625;22;20011;-86
2022/07/23 07:42:06;;;;;;;4.07;0.88;;;16.60;99.90;;;;;;6314353;22;20098;-85
2022/07/23 07:44:32;;;;;;;1.88;0.73;;;16.60;99.90;;;;;;6341081;22;20307;-86
2022/07/23 07:46:58;;;;;;;2.00;0.90;;;16.60;99.90;;;;;;6314552;22;20010;-85
2022/07/23 07:49:23;;;;;;;2.95;0.95;;;16.50;99.90;;;;;;6343040;22;20011;-86
2022/07/23 07:51:49;;;;;;;2.55;1.05;;;16.40;99.90;;;;;;6314709;22;20017;-86
2022/07/23 07:54:15;;;;;;;2.85;0.90;;;16.50;99.90;;;;;;6314012;22;20018;-84
2022/07/23 07:56:41;;;;;;;8.75;1.85;;;16.60;99.90;;;;;;6340871;22;20473;-87
2022/07/23 07:59:07;;;;;;;3.70;1.00;;;16.60;99.90;;;;;;6313557;22;20015;-86
2022/07/23 08:01:32;;;;;;;4.30;0.80;;;16.70;99.90;;;;;;6288694;22;20162;-88
2022/07/23 08:03:58;;;;;;;2.20;0.90;;;16.70;99.90;;;;;;6341822;22;20336;-85
2022/07/23 08:06:24;;;;;;;1.80;0.80;;;16.80;99.90;;;;;;6290408;22;20049;-86
2022/07/23 08:08:50;;;;;;;1.50;0.70;;;16.90;99.90;;;;;;6345639;22;20006;-87
2022/07/23 08:11:16;;;;;;;1.98;0.70;;;17.00;99.90;;;;;;6345213;22;20032;-86
2022/07/23 08:13:44;;;;;;;3.53;0.63;;;17.00;99.90;;;;;;6343183;22;20007;-84
2022/07/23 08:16:14;;;;;;;3.55;0.80;;;17.10;99.90;;;;;;6340056;22;20014;-90
2022/07/23 08:18:40;;;;;;;1.63;0.63;;;17.10;99.90;;;;;;6287584;22;20407;-86
2022/07/23 08:21:06;;;;;;;1.55;0.70;;;17.20;99.90;;;;;;6341393;22;20037;-85
2022/07/23 08:23:31;;;;;;;2.00;0.60;;;17.20;99.90;;;;;;6313939;22;20007;-89
2022/07/23 08:25:59;;;;;;;2.22;0.65;;;17.40;99.90;;;;;;6313656;22;20044;-86
2022/07/23 08:28:25;;;;;;;1.92;0.60;;;17.40;99.90;;;;;;6313636;22;20703;-87
2022/07/23 08:30:50;;;;;;;2.45;0.77;;;17.50;99.90;;;;;;6312186;22;20044;-86
2022/07/23 08:33:17;;;;;;;1.73;0.80;;;17.70;99.90;;;;;;6312182;22;20026;-86
2022/07/23 08:35:46;;;;;;;1.33;0.60;;;17.80;99.90;;;;;;6312632;22;20018;-86
2022/07/23 08:38:14;;;;;;;3.70;0.77;;;17.90;99.90;;;;;;6312710;22;20010;-85
2022/07/23 08:40:50;;;;;;;1.88;0.70;;;17.90;99.90;;;;;;6313363;22;20015;-87
2022/07/23 08:43:24;;;;;;;1.77;0.70;;;17.90;99.90;;;;;;6340885;22;20022;-86
2022/07/23 08:45:53;;;;;;;1.88;0.70;;;17.90;99.90;;;;;;6313605;22;20524;-87
2022/07/23 08:48:21;;;;;;;2.13;0.70;;;18.00;99.90;;;;;;6313277;22;20014;-87
2022/07/23 08:50:56;;;;;;;3.95;0.70;;;18.10;99.90;;;;;;6312877;22;20010;-87
2022/07/23 08:53:23;;;;;;;1.23;0.70;;;18.10;99.90;;;;;;6313446;22;20014;-86
2022/07/23 08:55:51;;;;;;;1.20;0.80;;;18.10;99.90;;;;;;6313523;22;20067;-85
2022/07/23 08:58:17;;;;;;;2.60;0.70;;;18.10;99.90;;;;;;6312852;22;20066;-85
2022/07/23 09:00:44;;;;;;;3.33;0.93;;;18.20;99.90;;;;;;6286977;22;20344;-85
2022/07/23 09:03:21;;;;;;;2.58;0.80;;;18.30;99.90;;;;;;6287062;22;20050;-85
2022/07/23 09:05:48;;;;;;;2.42;0.70;;;18.30;99.90;;;;;;6312784;22;20014;-88
2022/07/23 09:08:21;;;;;;;2.67;0.80;;;18.50;99.90;;;;;;6312187;22;20313;-81
2022/07/23 09:10:59;;;;;;;2.25;0.88;;;18.60;99.90;;;;;;6311947;22;20018;-82
2022/07/23 09:13:30;;;;;;;3.17;0.60;;;18.70;99.90;;;;;;6340713;22;20010;-84
2022/07/23 09:16:10;;;;;;;1.77;0.70;;;18.70;99.90;;;;;;6313865;22;20064;-82
2022/07/23 09:18:39;;;;;;;2.67;0.73;;;18.80;99.90;;;;;;6313160;22;20021;-85
2022/07/23 09:21:20;;;;;;;1.63;0.77;;;18.80;99.90;;;;;;6287362;22;20444;-82
2022/07/23 09:23:51;;;;;;;1.65;0.80;;;18.80;99.90;;;;;;6313363;22;20509;-85
2022/07/23 09:26:21;;;;;;;2.15;0.77;;;18.80;99.90;;;;;;6312450;22;20026;-85
2022/07/23 09:29:04;;;;;;;1.10;0.70;;;18.90;99.90;;;;;;6287438;22;20344;-84
2022/07/23 09:31:42;;;;;;;1.35;0.80;;;19.10;99.90;;;;;;6340451;22;20447;-84
2022/07/23 09:34:22;;;;;;;1.70;0.90;;;19.20;99.90;;;;;;6286980;22;20011;-87
2022/07/23 09:36:49;;;;;;;1.98;0.95;;;19.30;99.90;;;;;;6287096;22;20015;-84
2022/07/23 09:39:22;;;;;;;1.42;1.00;;;19.20;99.90;;;;;;6313189;22;20018;-86
2022/07/23 09:41:48;;;;;;;1.92;0.90;;;19.10;99.90;;;;;;6340813;22;20014;-87
2022/07/23 09:44:19;;;;;;;2.35;1.00;;;19.10;99.90;;;;;;6287569;22;20011;-85
2022/07/23 09:46:56;;;;;;;1.95;1.02;;;19.00;99.90;;;;;;6312235;22;20094;-85
2022/07/23 09:49:23;;;;;;;3.40;1.10;;;18.90;99.90;;;;;;6286950;22;20007;-85
2022/07/23 09:51:58;;;;;;;2.72;1.05;;;19.00;99.90;;;;;;6313790;22;20159;-88
2022/07/23 09:54:34;;;;;;;4.15;1.20;;;19.20;99.90;;;;;;6314903;22;20029;-85
2022/07/23 09:57:04;;;;;;;5.55;1.40;;;19.30;99.90;;;;;;6342163;22;20010;-86
2022/07/23 09:59:33;;;;;;;3.83;1.25;;;19.30;99.90;;;;;;6315721;22;20014;-86
2022/07/23 10:01:59;;;;;;;3.63;1.25;;;19.50;99.90;;;;;;6342384;22;20015;-85
2022/07/23 10:04:28;;;;;;;1.77;1.27;;;19.40;99.90;;;;;;6315247;22;20011;-85
2022/07/23 10:06:56;;;;;;;4.25;1.10;;;19.30;99.90;;;;;;6314496;22;20039;-86
2022/07/23 10:09:34;;;;;;;1.52;1.00;;;19.40;99.90;;;;;;6314603;22;20015;-85
2022/07/23 10:14:42;;;;;;;2.38;1.15;;;19.50;99.90;;;;;;6341222;22;20025;-80
2022/07/23 10:17:08;;;;;;;4.38;1.25;;;19.60;99.90;;;;;;6340331;22;20467;-79
2022/07/23 10:19:35;;;;;;;3.03;1.23;;;19.60;99.90;;;;;;6340184;22;20007;-77
2022/07/23 10:22:03;;;;;;;2.05;1.30;;;19.80;99.90;;;;;;6341834;22;20022;-88
2022/07/23 10:24:59;;;;;;;2.30;1.50;;;19.90;99.90;;;;;;6316762;22;20011;-89
2022/07/23 10:28:24;;;;;;;3.78;1.13;;;20.00;99.90;;;;;;6315960;22;20077;-89
2022/07/23 10:31:30;;;;;;;3.22;1.25;;;20.00;99.90;;;;;;6314175;22;20014;-90
2022/07/23 10:34:39;;;;;;;4.03;1.60;;;19.90;99.90;;;;;;6162465;23;20414;-90
2022/07/23 10:37:23;;;;;;;4.28;1.58;;;19.80;99.90;;;;;;6116142;23;20108;-89
2022/07/23 10:40:07;;;;;;;3.30;1.60;;;19.70;99.90;;;;;;6159053;23;20087;-79
2022/07/23 10:42:35;;;;;;;2.20;1.40;;;19.80;99.90;;;;;;6184557;23;20023;-84
2022/07/23 10:45:00;;;;;;;3.40;1.80;;;19.90;99.90;;;;;;6184952;23;20482;-84
2022/07/23 10:47:43;;;;;;;3.25;1.30;;;20.00;99.90;;;;;;6159686;23;20063;-84
2022/07/23 10:50:34;;;;;;;2.65;1.20;;;20.20;99.90;;;;;;6158596;23;20045;-84
2022/07/23 10:53:06;;;;;;;2.55;1.50;;;20.30;99.90;;;;;;6164425;23;20013;-83
2022/07/23 10:55:32;;;;;;;3.75;1.70;;;20.40;99.90;;;;;;6258656;22;20018;-83
2022/07/23 10:57:58;;;;;;;2.17;1.30;;;20.40;99.90;;;;;;6326993;22;20038;-81
2022/07/23 11:00:26;;;;;;;9.98;2.30;;;20.30;99.90;;;;;;6324778;22;20451;-79
2022/07/23 11:02:54;;;;;;;4.22;1.55;;;20.30;99.90;;;;;;6344380;22;20496;-87
2022/07/23 11:05:22;;;;;;;3.67;1.50;;;20.10;99.90;;;;;;6304445;22;20025;-84
2022/07/23 11:08:03;;;;;;;3.03;1.50;;;20.30;99.90;;;;;;6320908;22;20082;-85
2022/07/23 11:10:41;;;;;;;4.60;1.50;;;20.50;99.90;;;;;;6315612;22;20011;-83
2022/07/23 11:13:22;;;;;;;2.13;1.48;;;20.80;99.90;;;;;;6289192;22;20078;-85
2022/07/23 11:16:12;;;;;;;2.83;1.50;;;21.00;99.90;;;;;;6289469;22;20428;-86
2022/07/23 11:18:44;;;;;;;5.60;1.65;;;21.20;99.90;;;;;;6289156;22;20015;-85
2022/07/23 11:21:29;;;;;;;5.90;2.80;;;21.20;99.90;;;;;;6341091;22;20018;-88
2022/07/23 11:24:03;;;;;;;2.50;1.50;;;21.20;99.90;;;;;;6314607;22;20014;-86
2022/07/23 11:26:41;;;;;;;3.83;1.73;;;21.30;99.90;;;;;;6314841;22;20462;-86
2022/07/23 11:29:28;;;;;;;3.03;1.75;;;21.20;99.90;;;;;;6314001;22;20091;-87
2022/07/23 11:31:58;;;;;;;4.80;1.85;;;21.20;99.90;;;;;;6313074;22;20053;-84
2022/07/23 11:34:35;;;;;;;4.18;1.50;;;21.20;99.90;;;;;;6341299;22;20011;-83
2022/07/23 11:37:03;;;;;;;3.33;1.60;;;21.00;99.90;;;;;;6314477;22;20086;-90
2022/07/23 11:39:31;;;;;;;4.25;1.77;;;21.00;99.90;;;;;;6313656;22;20070;-84
2022/07/23 11:41:58;;;;;;;4.40;1.80;;;20.80;99.90;;;;;;6313525;22;20023;-86
2022/07/23 11:44:30;;;;;;;4.00;2.03;;;20.90;99.90;;;;;;6341994;22;20055;-85
2022/07/23 11:46:57;;;;;;;4.20;1.67;;;21.00;99.90;;;;;;6314176;22;20015;-85
2022/07/23 11:49:23;;;;;;;4.47;1.63;;;20.90;99.90;;;;;;6313765;22;20011;-88
2022/07/23 11:52:07;;;;;;;3.45;2.10;;;20.80;99.90;;;;;;6314070;22;20504;-85
2022/07/23 11:54:35;;;;;;;5.70;1.98;;;20.50;99.90;;;;;;6314208;22;20099;-85
2022/07/23 11:57:03;;;;;;;3.72;1.90;;;20.60;99.90;;;;;;6341744;22;20007;-88
2022/07/23 11:59:33;;;;;;;3.13;1.60;;;20.50;99.90;;;;;;6313373;22;20003;-86
2022/07/23 12:02:06;;;;;;;6.38;1.75;;;20.60;99.90;;;;;;6341130;22;20017;-86
2022/07/23 12:04:45;;;;;;;3.63;1.95;;;20.80;99.90;;;;;;6341918;22;20003;-86
2022/07/23 12:07:27;;;;;;;2.90;1.80;;;21.10;99.90;;;;;;6313167;22;20081;-86
2022/07/23 12:09:54;;;;;;;3.47;1.77;;;21.20;99.90;;;;;;6314522;22;20392;-86
2022/07/23 12:12:20;;;;;;;3.60;2.17;;;21.20;99.90;;;;;;6341082;22;20038;-86
2022/07/23 12:14:52;;;;;;;2.58;1.60;;;21.30;99.90;;;;;;6287385;22;20026;-85
2022/07/23 12:17:19;;;;;;;3.05;1.80;;;21.20;99.90;;;;;;6313389;22;20114;-84
2022/07/23 12:19:46;;;;;;;3.35;1.58;;;21.50;99.90;;;;;;6313309;22;20022;-87
2022/07/23 12:22:14;;;;;;;3.53;1.65;;;21.80;99.90;;;;;;6288305;22;20011;-87
2022/07/23 12:25:04;;;;;;;3.22;1.70;;;22.20;99.90;;;;;;6313001;22;20042;-84
2022/07/23 12:27:30;;;;;;;3.33;1.90;;;22.20;99.90;;;;;;6313491;22;20428;-86
2022/07/23 12:29:55;;;;;;;2.92;1.60;;;22.10;99.90;;;;;;6313588;22;20033;-88
2022/07/23 12:32:27;;;;;;;3.65;1.80;;;22.30;99.90;;;;;;6312936;22;20132;-87
2022/07/23 12:35:07;;;;;;;5.57;2.10;;;22.20;99.90;;;;;;6314079;22;20014;-87
2022/07/23 12:37:39;;;;;;;3.67;1.92;;;22.50;99.90;;;;;;6313528;22;20018;-86
2022/07/23 12:40:29;;;;;;;4.30;1.77;;;22.40;99.90;;;;;;6287717;22;20011;-85
2022/07/23 12:43:09;;;;;;;3.53;1.83;;;22.50;99.90;;;;;;6287030;22;20085;-87
2022/07/23 12:45:46;;;;;;;8.07;2.10;;;22.50;99.90;;;;;;6313517;22;20041;-85
2022/07/23 12:48:29;;;;;;;3.55;1.70;;;22.40;99.90;;;;;;6340213;22;20014;-87
2022/07/23 12:50:57;;;;;;;3.38;1.65;;;22.40;99.90;;;;;;6315217;22;20063;-87
2022/07/23 12:53:32;;;;;;;4.72;2.35;;;22.30;99.90;;;;;;6287555;22;20019;-85
2022/07/23 12:56:07;;;;;;;3.50;1.80;;;22.10;99.90;;;;;;6287862;22;20317;-87
2022/07/23 12:58:51;;;;;;;4.30;1.80;;;22.20;99.90;;;;;;6287739;22;20014;-87
2022/07/23 13:01:20;;;;;;;3.45;1.92;;;22.50;99.90;;;;;;6288275;22;20456;-87
2022/07/23 13:04:05;;;;;;;3.85;2.30;;;22.50;99.90;;;;;;6313265;22;20436;-83
2022/07/23 13:06:36;;;;;;;4.85;1.58;;;22.30;99.90;;;;;;6342897;22;20010;-86
2022/07/23 13:09:05;;;;;;;4.85;1.77;;;22.20;99.90;;;;;;6342556;22;20007;-87
2022/07/23 13:11:31;;;;;;;2.38;1.50;;;22.10;99.90;;;;;;6314903;22;20010;-87
2022/07/23 13:14:00;;;;;;;4.72;1.92;;;22.00;99.90;;;;;;6315359;22;20040;-88
2022/07/23 13:16:26;;;;;;;4.40;1.80;;;22.10;99.90;;;;;;6318376;22;20010;-88
2022/07/23 13:18:52;;;;;;;3.55;1.98;;;22.00;99.90;;;;;;6345916;22;20042;-88
2022/07/23 13:21:18;;;;;;;2.75;1.70;;;21.90;99.90;;;;;;6314342;22;20030;-88
2022/07/23 13:23:44;;;;;;;4.30;1.90;;;21.60;99.90;;;;;;6289587;22;20029;-86
2022/07/23 13:26:10;;;;;;;3.60;1.70;;;21.50;99.90;;;;;;6315063;22;20041;-87
2022/07/23 13:28:36;;;;;;;3.38;2.00;;;21.40;99.90;;;;;;6316376;22;20042;-88
2022/07/23 13:31:02;;;;;;;3.22;1.73;;;21.40;99.90;;;;;;6290886;22;20030;-87
2022/07/23 13:33:28;;;;;;;3.85;1.70;;;21.50;99.90;;;;;;6316356;22;20114;-88
2022/07/23 13:35:54;;;;;;;3.67;2.08;;;21.50;99.90;;;;;;6314737;22;20350;-85
2022/07/23 13:38:21;;;;;;;4.50;1.98;;;21.40;99.90;;;;;;6289260;22;20021;-88
2022/07/23 13:40:50;;;;;;;3.45;1.77;;;21.30;99.90;;;;;;6315349;22;20022;-88
2022/07/23 13:43:18;;;;;;;2.88;1.90;;;21.30;99.90;;;;;;6315813;22;20375;-89
2022/07/23 13:45:44;;;;;;;3.35;2.30;;;21.40;99.90;;;;;;6290018;22;20110;-87
2022/07/23 13:48:12;;;;;;;3.83;1.98;;;21.40;99.90;;;;;;6342980;22;20432;-88
2022/07/23 13:50:49;;;;;;;5.45;2.10;;;21.40;99.90;;;;;;6289583;22;20406;-88
2022/07/23 13:53:24;;;;;;;3.20;1.63;;;21.50;99.90;;;;;;6314645;22;20013;-88
2022/07/23 13:55:54;;;;;;;3.10;2.20;;;21.50;99.90;;;;;;6288454;22;20017;-89
2022/07/23 13:58:20;;;;;;;3.63;1.88;;;21.80;99.90;;;;;;6315141;22;20017;-87
2022/07/23 14:00:52;;;;;;;2.95;1.52;;;21.90;99.90;;;;;;6315516;22;20006;-88
2022/07/23 14:03:28;;;;;;;3.17;2.10;;;22.00;99.90;;;;;;6288879;22;20018;-88
2022/07/23 14:05:54;;;;;;;3.42;2.40;;;22.00;99.90;;;;;;6288712;22;20010;-88
2022/07/23 14:08:31;;;;;;;4.45;1.88;;;22.20;99.90;;;;;;6343267;22;20087;-88
2022/07/23 14:11:06;;;;;;;3.10;1.80;;;22.30;99.90;;;;;;6315069;22;20011;-89
2022/07/23 14:13:32;;;;;;;2.55;1.80;;;22.50;99.90;;;;;;6289291;22;20053;-87
2022/07/23 14:16:01;;;;;;;2.85;1.45;;;22.60;99.90;;;;;;6315721;22;20018;-88
2022/07/23 14:18:36;;;;;;;3.55;2.03;;;22.60;99.90;;;;;;6314582;22;20017;-88
2022/07/23 14:21:02;;;;;;;3.78;1.90;;;22.70;99.90;;;;;;6290261;22;20336;-88
2022/07/23 14:24:13;;;;;;;2.50;1.83;;;22.90;99.90;;;;;;6290010;22;20458;-89
2022/07/23 14:27:14;;;;;;;3.55;2.08;;;23.10;99.90;;;;;;6296973;22;20015;-90
2022/07/23 14:30:25;;;;;;;4.75;2.17;;;23.20;99.90;;;;;;6290449;22;20362;-89
2022/07/23 14:33:15;;;;;;;5.50;1.83;;;23.10;99.90;;;;;;6197648;22;20006;-88
2022/07/23 14:36:38;;;;;;;3.97;1.85;;;23.10;99.90;;;;;;6257310;22;20086;-89
2022/07/23 14:42:48;;;;;;;3.65;1.83;;;23.60;99.90;;;;;;6162908;23;20131;-89
2022/07/23 14:45:31;;;;;;;4.18;1.83;;;23.70;99.90;;;;;;6162529;23;20025;-91
2022/07/23 14:48:15;;;;;;;3.38;1.80;;;23.70;99.90;;;;;;6281370;22;20073;-86
2022/07/23 14:51:38;;;;;;;3.47;1.52;;;23.70;99.90;;;;;;6283118;22;20042;-90
2022/07/23 14:54:47;;;;;;;;;;;;;;;;;;;;;
2022/07/23 14:57:13;;;;;;;3.25;1.50;;;23.80;99.90;;;;;;6252108;22;20011;-86
2022/07/23 14:59:41;;;;;;;4.80;1.80;;;23.80;99.90;;;;;;6253188;22;20095;-90
2022/07/23 15:02:17;;;;;;;2.97;1.88;;;23.80;99.90;;;;;;6252506;22;20020;-89
2022/07/23 15:05:03;;;;;;;4.72;1.70;;;23.80;99.90;;;;;;6278405;22;20068;-89
2022/07/23 15:10:42;;;;;;;4.43;1.70;;;23.80;99.90;;;;;;6252704;22;20449;-88
2022/07/23 15:13:12;;;;;;;2.53;1.70;;;23.80;99.90;;;;;;6253197;22;20015;-89
2022/07/23 15:15:38;;;;;;;3.50;1.60;;;23.90;99.90;;;;;;6228490;22;20019;-89
2022/07/23 15:18:14;;;;;;;3.80;2.00;;;23.90;99.90;;;;;;6270965;22;20021;-89
2022/07/23 15:20:40;;;;;;;2.85;1.70;;;23.90;99.90;;;;;;6314866;22;20022;-88
2022/07/23 15:23:06;;;;;;;2.47;1.70;;;23.90;99.90;;;;;;6291204;22;20026;-86
2022/07/23 15:25:32;;;;;;;3.03;1.80;;;23.90;99.90;;;;;;6289609;22;20089;-88
2022/07/23 15:27:58;;;;;;;4.10;2.00;;;23.90;99.90;;;;;;6343819;22;20014;-88
2022/07/23 15:30:27;;;;;;;4.30;1.95;;;23.90;99.90;;;;;;6315107;22;20013;-88
2022/07/23 15:32:53;;;;;;;2.60;1.65;;;24.00;99.90;;;;;;6289720;22;20011;-87
2022/07/23 15:35:19;;;;;;;3.53;1.70;;;24.10;99.90;;;;;;6289846;22;20362;-90
2022/07/23 15:37:45;;;;;;;2.60;1.77;;;24.20;99.90;;;;;;6316278;22;20011;-89
2022/07/23 15:40:11;;;;;;;2.63;1.80;;;24.20;99.90;;;;;;6316061;22;20098;-89
2022/07/23 15:42:37;;;;;;;3.65;1.88;;;24.40;99.90;;;;;;6289802;22;20018;-89
2022/07/23 15:45:04;;;;;;;3.83;1.90;;;24.40;99.90;;;;;;6315372;22;20021;-88
2022/07/23 15:47:30;;;;;;;3.75;1.63;;;24.20;99.90;;;;;;6315956;22;20071;-87
2022/07/23 15:49:59;;;;;;;2.30;1.52;;;24.00;99.90;;;;;;6315405;22;20010;-89
2022/07/23 15:52:41;;;;;;;;;;;;;;;;;;;;;
2022/07/23 15:55:10;;;;;;;3.08;1.60;;;23.90;99.90;;;;;;6315171;22;20019;-89
2022/07/23 15:58:08;;;;;;;3.92;1.80;;;24.10;99.90;;;;;;6267571;22;20022;-86
2022/07/23 16:00:34;;;;;;;3.35;1.65;;;24.30;99.90;;;;;;6289704;22;20014;-88
2022/07/23 16:03:00;;;;;;;4.70;1.73;;;24.20;99.90;;;;;;6315541;22;20015;-89
2022/07/23 16:05:34;;;;;;;3.90;2.10;;;24.30;99.90;;;;;;6315165;22;20014;-89
2022/07/23 16:08:02;;;;;;;3.00;1.50;;;24.50;99.90;;;;;;6314843;22;20014;-88
2022/07/23 16:10:28;;;;;;;3.20;1.73;;;24.60;99.90;;;;;;6288964;22;20015;-85
2022/07/23 16:12:54;;;;;;;5.65;1.65;;;24.60;99.90;;;;;;6313938;22;20015;-88
2022/07/23 16:15:20;;;;;;;5.20;1.50;;;24.50;99.90;;;;;;6288317;22;20029;-86
2022/07/23 16:17:46;;;;;;;3.10;1.90;;;24.50;99.90;;;;;;6314436;22;20014;-86
2022/07/23 16:20:12;;;;;;;3.83;1.45;;;24.50;99.90;;;;;;6314741;22;20090;-87
2022/07/23 16:22:38;;;;;;;4.65;1.48;;;24.40;99.90;;;;;;6342728;22;20111;-88
2022/07/23 16:25:05;;;;;;;3.30;1.90;;;24.40;99.90;;;;;;6343165;22;20003;-86
2022/07/23 16:27:36;;;;;;;4.13;1.67;;;24.40;99.90;;;;;;6290186;22;20080;-87
2022/07/23 16:30:02;;;;;;;2.60;1.60;;;24.40;99.90;;;;;;6316082;22;20336;-86
2022/07/23 16:32:28;;;;;;;2.65;1.60;;;24.30;99.90;;;;;;6314664;22;20482;-86
2022/07/23 16:34:53;;;;;;;3.03;1.98;;;24.30;99.90;;;;;;6315297;22;20082;-84
2022/07/23 16:37:19;;;;;;;3.95;2.13;;;24.30;99.90;;;;;;6344615;22;20011;-86
2022/07/23 16:39:45;;;;;;;4.15;1.60;;;24.30;99.90;;;;;;6316349;22;20391;-87
2022/07/23 16:42:11;;;;;;;3.80;1.88;;;24.20;99.90;;;;;;6343220;22;20459;-86
2022/07/23 16:44:36;;;;;;;3.75;1.58;;;24.20;99.90;;;;;;6315579;22;20021;-87
2022/07/23 16:47:02;;;;;;;3.47;1.67;;;24.10;99.90;;;;;;6289876;22;20015;-87
2022/07/23 16:49:28;;;;;;;4.53;1.70;;;24.10;99.90;;;;;;6343019;22;20053;-88
2022/07/23 16:51:54;;;;;;;3.83;1.92;;;24.00;99.90;;;;;;6315753;22;20015;-87
2022/07/23 16:54:19;;;;;;;4.57;1.90;;;23.80;99.90;;;;;;6290041;22;20062;-87
2022/07/23 16:56:46;;;;;;;2.95;1.90;;;23.70;99.90;;;;;;6289155;22;20062;-86
2022/07/23 16:59:12;;;;;;;3.40;1.70;;;23.70;99.90;;;;;;6343198;22;20011;-86
2022/07/23 17:01:38;;;;;;;5.53;2.08;;;23.60;99.90;;;;;;6315306;22;20029;-85
2022/07/23 17:04:04;;;;;;;5.15;1.70;;;23.60;99.90;;;;;;6317545;22;20382;-87
2022/07/23 17:06:29;;;;;;;4.55;1.75;;;23.60;99.90;;;;;;6345073;22;20014;-86
2022/07/23 17:08:55;;;;;;;3.78;1.80;;;23.60;99.90;;;;;;6291448;22;20011;-87
2022/07/23 17:11:21;;;;;;;4.30;2.15;;;23.60;99.90;;;;;;6291614;22;20014;-86
2022/07/23 17:13:47;;;;;;;3.70;1.80;;;23.60;99.90;;;;;;6316872;22;20025;-88